Siloam, GA (30665)

5:10 AM EDT on September 01, 2014 (GMT -0400)
Greensboro | Change Station
CLOSE
Current Station
Airport
Location: Greensboro,
Elevation: 676 ft
Nearby Weather Stations

Elev 676 ft 33.60 °N, 83.14 °W | Updated 15 minutes ago

Clear
Clear
68 °F
Feels Like 68 °F
N
0
Wind Variable Wind from North

Today
High -- | Low -- °F
--% Chance of Precip.
Yesterday
High -- | Low -- °F
Precip. -- in
7:06 AM 7:57 PM
Waxing Crescent, 39% visible
Pressure 30.08 in
Visibility 7.0 miles
Clouds Clear
Dew Point 66 °F
Humidity 94%
Rainfall 0.00 in
Snow Depth Not available.
UV 0 out of 12
Pollen 7.80 out of 12
Air Quality Not available.
Flu Activity Not available.
METAR K3J7 010855Z AUTO 00000KT 7SM CLR 20/19 A3008 RMK AO2

More Conditions Fewer Conditions

Pressure 30.08 in
Visibility 7.0 miles
Clouds Clear
Dew Point 66 °F
Humidity 94%
Rainfall 0.00 in
Snow Depth Not available.
UV 0 out of 12
Pollen 7.80 out of 12
Air Quality Not available.
Flu Activity Not available.
METAR K3J7 010855Z AUTO 00000KT 7SM CLR 20/19 A3008 RMK AO2

More Conditions Fewer Conditions

10-Day Weather Forecast

Almanac

Astronomy

Sep. 01, 2014 Rise Set
Actual Time 7:06 AM EDT 7:57 PM EDT
Civil Twilight 6:40 AM EDT 8:23 PM EDT
Nautical Twilight 6:10 AM EDT 8:52 PM EDT
Astronomical Twilight 5:40 AM EDT 9:23 PM EDT
Moon 1:31 PM EDT No Moon Set
Length of Visible Light 13h 42m
Length of Day
12h 51m
Tomorrow will be 2m 0s shorter.
Waxing Crescent, 39% of the Moon is Illuminated
Today
Waxing Crescent
Sep 2
First Quarter
Sep 8
Full
Sep 15
Last Quarter
Sep 24
New

Today's Extremes

State Highs State Lows

Community

WunderPhotos

Upload Photos

1,749,178 photos uploaded!

Nearby

Snow Depth

Station Depth Elevation
No new snow has been reported.

Earthquake Activity

City Distance Mag. Time & Date
No recent earthquake activity has been reported nearby.
Minimum magnitude displayed is 2.5.

Coastal Water Temperatures

Place Temperature
No Stations Reporting

Nearby Weather Stations